TRAVEL WEATHER INFO - USA

NOAA Site Locator - Search for Station Information

CITY Forecast Link METAR Identifier Last Updated Temperature Dew Point Humidity Pressure Wind Direction Wind Speed Wind Gust Weather Rain/hr Google Maps
Albuqueque WEATHER KABQ 01/23/2019 19:52 39.2 10.4 30 30.09 W 4 4 Few Clouds --- Albuquerque, NM Map
Anchorage WEATHER PAED 01/23/2019 19:56 33.8 32.0 93 29.68 --- 0 0 Broken Clouds --- Anchorage, AK Map
Atlanta WEATHER KATL 01/23/2019 20:43 32.0 32.0 100 29.77 W 11 11 Overcast 0.25 ATLANTA, GA Map
Birmingham WEATHER KBHM 01/23/2019 19:53 53.6 53.6 100 29.82 --- 0 0 Overcast 0.09 Birmingham, AL Map
Boston WEATHER KBOS 01/23/2019 19:54 42.8 35.6 75 30.01 SW 13 13 Overcast --- BOSTON, MA Map
Cheyenne WEATHER KCYS 01/23/2019 19:53 28.4 19.4 69 29.87 WNW 18 28 0.00 Cheyenne, WY Map
Chicago O'Hare WEATHER KORD 01/23/2019 19:51 21.2 15.8 79 29.82 WNW 10 10 Scattered Clouds --- CHICAGO, IL Map
Colorado Springs WEATHER KCOS 01/23/2019 19:54 28.4 15.8 59 29.89 NE 11 11 Few Clouds --- Colo. Springs, CO Map
Dallas WEATHER KADS 01/23/2019 19:47 42.8 21.2 42 30.11 NW 4 4 Clear --- Dallas, TX Map
Denver WEATHER KDEN 01/23/2019 19:53 30.2 23.0 74 29.88 SE 6 6 Broken Clouds --- DENVER, CO Map
Detroit WEATHER KDET 01/23/2019 20:27 37.4 33.8 87 29.64 W 9 9 --- Detroit, MI Map
Dover WEATHER KDOV 01/23/2019 19:56 51.8 44.6 76 30.01 S 12 12 Scattered Clouds --- DOVER, DE Map
Fort Lauderdale WEATHER KFXE 01/23/2019 19:53 75.2 66.2 74 30.08 SE 17 24 Overcast --- Fort Lauderdale, FL Map
Honolulu WEATHER PHNL 01/23/2019 19:53 82.4 62.6 51 29.99 SSE 6 6 Few Clouds --- Honolulu, HI Map
JFK Airport WEATHER KJFK 01/23/2019 19:51 42.8 39.2 87 30.04 SSW 12 12 Broken Clouds --- JFK Airport, NYC Map
Key West WEATHER KEYW 01/23/2019 20:16 75.2 69.8 83 30.04 ESE 18 27 Broken Clouds 0.00 Key West, FL Map
Los Angeles WEATHER KLAX 01/23/2019 19:53 59.0 44.6 59 30.17 WSW 10 10 Few Clouds --- Los Angeles, CA Map
Louisville WEATHER KSDF 01/23/2019 20:16 35.6 33.8 93 29.79 WNW 13 13 0.03 Louisville, KY Map
Minneapolis WEATHER KMSP 01/23/2019 20:31 19.4 14.0 79 29.80 SSW 4 4 Overcast --- Minneapolis, MN Map
Morgantown WEATHER KMGW 01/23/2019 19:53 53.6 46.4 77 29.78 W 4 4 Overcast 0.04 Morgantown, WV Map
New Orleans WEATHER KNEW 01/23/2019 20:15 46.4 44.6 93 29.94 WNW 29 29 Overcast 0.00 New Orleans, LA Map
New York City WEATHER KNYC 01/23/2019 19:51 46.4 35.6 66 30.04 --- --- Overcast --- New York, NY Map
Omaha WEATHER KOMA 01/23/2019 19:52 19.4 12.2 73 29.89 SSE 6 6 Few Clouds --- Omaha, NE Map
Philadelphia WEATHER KPHL 01/23/2019 19:54 46.4 37.4 71 30.01 N 3 3 Overcast --- Philadelphia, PA Map
Pittsburgh WEATHER KPIT 01/23/2019 19:51 41.0 41.0 100 29.74 S 3 3 Overcast 0.03 Pittsburgh, PA Map
Seattle WEATHER KSEA 01/23/2019 19:53 48.2 42.8 81 30.38 NE 3 3 Broken Clouds --- Seattle, WA Map
San Francisco WEATHER KSFO 01/23/2019 19:56 57.2 37.4 47 30.31 NW 9 9 Scattered Clouds --- San Francisco, CA Map
Washington DC WEATHER KDCA 01/23/2019 19:52 46.4 35.6 66 29.98 S 5 5 Broken Clouds --- Washington, DC Map